createdAt,value
2019-02-21T00:01:02.697Z,4.00
2019-02-21T00:03:32.436Z,4.00
2019-02-21T00:06:02.527Z,4.00
2019-02-21T00:08:32.746Z,3.90
2019-02-21T00:11:03.547Z,4.00
2019-02-21T00:13:34.309Z,4.00
2019-02-21T00:16:05.267Z,3.90
2019-02-21T00:18:35.354Z,3.90
2019-02-21T00:21:05.574Z,3.80
2019-02-21T00:23:36.005Z,3.70
2019-02-21T00:26:06.720Z,3.70
2019-02-21T00:28:37.493Z,3.70
2019-02-21T00:31:07.886Z,3.80
2019-02-21T00:33:38.231Z,3.70
2019-02-21T00:36:08.320Z,3.80
2019-02-21T00:38:38.688Z,3.80
2019-02-21T00:41:09.504Z,3.80
2019-02-21T00:43:40.140Z,3.80
2019-02-21T00:46:10.166Z,3.80
2019-02-21T00:48:40.543Z,3.90
2019-02-21T00:51:10.914Z,4.00
2019-02-21T00:53:40.675Z,4.20
2019-02-21T00:56:11.104Z,4.40
2019-02-21T00:58:41.166Z,4.20
2019-02-21T01:01:11.807Z,4.20
2019-02-21T01:03:42.295Z,4.10
2019-02-21T01:06:12.688Z,3.90
2019-02-21T01:08:42.553Z,3.80
2019-02-21T01:11:12.890Z,3.70
2019-02-21T01:13:42.211Z,3.60
2019-02-21T01:16:12.314Z,3.50
2019-02-21T01:18:42.935Z,3.30
2019-02-21T01:21:12.723Z,3.10
2019-02-21T01:23:42.413Z,3.00
2019-02-21T01:26:12.203Z,2.90
2019-02-21T01:28:42.267Z,2.80
2019-02-21T01:31:12.438Z,2.80
2019-02-21T01:33:42.553Z,2.90
2019-02-21T01:36:11.909Z,3.10
2019-02-21T01:38:42.582Z,3.10
2019-02-21T01:41:13.357Z,3.10
2019-02-21T01:43:43.095Z,3.10
2019-02-21T01:46:12.823Z,3.10
2019-02-21T01:48:43.203Z,3.10
2019-02-21T01:51:13.397Z,3.10
2019-02-21T01:53:43.739Z,3.10
2019-02-21T01:56:13.781Z,3.10
2019-02-21T01:58:43.516Z,3.00
2019-02-21T02:01:14.126Z,3.10
2019-02-21T02:03:44.575Z,3.10
2019-02-21T02:06:14.153Z,3.30
2019-02-21T02:08:44.213Z,3.30
2019-02-21T02:11:14.896Z,3.30
2019-02-21T02:13:44.234Z,3.20
2019-02-21T02:16:14.200Z,3.10
2019-02-21T02:18:44.223Z,3.00
2019-02-21T02:21:14.283Z,2.90
2019-02-21T02:23:44.298Z,2.80
2019-02-21T02:26:14.983Z,2.80
2019-02-21T02:28:45.648Z,2.70
2019-02-21T02:31:22.733Z,2.50
2019-02-21T02:33:48.061Z,2.50
2019-02-21T02:36:17.760Z,2.40
2019-02-21T02:38:48.049Z,2.40
2019-02-21T02:41:18.503Z,2.40
2019-02-21T02:43:49.186Z,2.40
2019-02-21T02:46:19.607Z,2.30
2019-02-21T02:48:49.963Z,2.40
2019-02-21T02:51:20.313Z,2.40
2019-02-21T02:53:50.683Z,2.40
2019-02-21T02:56:21.076Z,2.40
2019-02-21T02:58:51.512Z,2.60
2019-02-21T03:01:34.040Z,2.70
2019-02-21T03:03:52.862Z,2.70
2019-02-21T03:06:23.535Z,2.80
2019-02-21T03:08:53.524Z,2.80
2019-02-21T03:11:23.943Z,2.80
2019-02-21T03:13:54.248Z,2.70
2019-02-21T03:16:23.982Z,2.60
2019-02-21T03:18:54.412Z,2.50
2019-02-21T03:21:24.173Z,2.40
2019-02-21T03:23:54.463Z,2.40
2019-02-21T03:26:24.593Z,2.40
2019-02-21T03:28:54.323Z,2.40
2019-02-21T03:31:23.950Z,2.60
2019-02-21T03:33:54.290Z,2.60
2019-02-21T03:36:24.951Z,2.80
2019-02-21T03:38:55.689Z,2.80
2019-02-21T03:41:25.824Z,2.80
2019-02-21T03:43:56.215Z,2.70
2019-02-21T03:46:26.574Z,2.70
2019-02-21T03:48:56.973Z,2.60
2019-02-21T03:51:26.956Z,2.70
2019-02-21T03:53:56.961Z,2.70
2019-02-21T03:56:26.527Z,2.70
2019-02-21T03:58:56.965Z,2.90
2019-02-21T04:01:27.644Z,2.90
2019-02-21T04:03:57.706Z,2.90
2019-02-21T04:06:27.886Z,3.00
2019-02-21T04:08:57.974Z,3.10
2019-02-21T04:11:28.348Z,3.10
2019-02-21T04:13:58.476Z,3.00
2019-02-21T04:16:29.251Z,2.90
2019-02-21T04:18:59.324Z,2.90
2019-02-21T04:21:29.788Z,2.80
2019-02-21T04:23:59.910Z,2.80
2019-02-21T04:26:30.312Z,2.70
2019-02-21T04:29:00.726Z,2.60
2019-02-21T04:31:31.219Z,2.50
2019-02-21T04:34:01.178Z,2.50
2019-02-21T04:36:31.277Z,2.50
2019-02-21T04:39:01.642Z,2.60
2019-02-21T04:41:32.426Z,2.60
2019-02-21T04:44:04.032Z,2.70
2019-02-21T04:46:33.400Z,2.80
2019-02-21T04:49:03.100Z,2.90
2019-02-21T04:51:33.548Z,2.80
2019-02-21T04:54:03.788Z,2.60
2019-02-21T04:56:33.500Z,2.40
2019-02-21T04:59:03.232Z,2.20
2019-02-21T05:01:33.291Z,2.10
2019-02-21T05:04:04.897Z,2.00
2019-02-21T05:06:35.706Z,2.00
2019-02-21T05:09:07.521Z,2.00
2019-02-21T05:11:38.129Z,2.10
2019-02-21T05:14:08.498Z,2.20
2019-02-21T05:16:38.565Z,2.20
2019-02-21T05:19:09.310Z,2.10
2019-02-21T05:21:39.999Z,2.10
2019-02-21T05:24:09.685Z,2.10
2019-02-21T05:26:50.166Z,2.10
2019-02-21T05:29:19.957Z,2.10
2019-02-21T05:32:11.709Z,2.10
2019-02-21T05:34:59.707Z,2.00
2019-02-21T05:37:52.073Z,2.10
2019-02-21T05:40:41.940Z,2.10
2019-02-21T05:43:31.414Z,2.10
2019-02-21T05:46:18.703Z,2.20
2019-02-21T05:49:20.418Z,2.30
2019-02-21T05:51:55.137Z,2.20
2019-02-21T05:54:36.528Z,2.10
2019-02-21T05:57:34.637Z,2.10
2019-02-21T06:00:36.942Z,2.00
2019-02-21T06:03:21.021Z,2.10
2019-02-21T06:06:17.492Z,2.10
2019-02-21T06:09:38.564Z,2.10
2019-02-21T06:12:17.177Z,1.90
2019-02-21T06:15:21.610Z,1.80
2019-02-21T06:18:10.279Z,1.90
2019-02-21T06:20:58.821Z,1.80
2019-02-21T06:23:45.922Z,1.80
2019-02-21T06:26:19.860Z,1.90
2019-02-21T06:29:12.275Z,1.90
2019-02-21T06:31:42.629Z,2.00
2019-02-21T06:34:12.692Z,2.20
2019-02-21T06:36:43.019Z,2.50
2019-02-21T06:39:13.091Z,2.50
2019-02-21T06:41:42.900Z,2.60
2019-02-21T06:44:12.364Z,2.50
2019-02-21T06:46:43.289Z,2.50
2019-02-21T06:49:14.911Z,2.40
2019-02-21T06:51:45.658Z,2.80
2019-02-21T06:54:15.841Z,2.70
2019-02-21T06:56:48.550Z,2.70
2019-02-21T06:59:19.055Z,2.60
2019-02-21T07:01:49.755Z,2.60
2019-02-21T07:04:19.437Z,2.70
2019-02-21T07:06:49.814Z,2.70
2019-02-21T07:09:20.513Z,2.80
2019-02-21T07:11:50.471Z,2.90
2019-02-21T07:14:20.564Z,3.00
2019-02-21T07:16:51.469Z,3.10
2019-02-21T07:19:21.694Z,3.20
2019-02-21T07:21:52.118Z,3.40
2019-02-21T07:24:31.534Z,3.50
2019-02-21T07:27:03.698Z,3.70
2019-02-21T07:29:34.445Z,3.70
2019-02-21T07:35:30.314Z,3.80
2019-02-21T07:38:05.366Z,3.90
2019-02-21T07:40:35.083Z,4.00
2019-02-21T07:43:05.635Z,4.00
2019-02-21T07:45:36.398Z,4.10
2019-02-21T07:48:11.405Z,4.10
2019-02-21T07:50:41.173Z,4.20
2019-02-21T07:53:10.976Z,4.30
2019-02-21T07:55:41.405Z,4.50
2019-02-21T07:58:11.445Z,4.60
2019-02-21T08:00:41.387Z,4.60
2019-02-21T08:03:12.213Z,4.60
2019-02-21T08:05:42.319Z,4.70
2019-02-21T08:08:13.396Z,4.80
2019-02-21T08:10:43.790Z,4.90
2019-02-21T08:13:13.726Z,5.20
2019-02-21T08:15:44.258Z,5.40
2019-02-21T08:18:14.600Z,5.50
2019-02-21T08:20:45.020Z,5.60
2019-02-21T08:23:14.407Z,5.70
2019-02-21T08:25:45.185Z,5.80
2019-02-21T08:28:15.859Z,6.00
2019-02-21T08:30:46.174Z,6.20
2019-02-21T08:33:41.211Z,6.30
2019-02-21T08:36:10.947Z,6.40
2019-02-21T08:38:41.002Z,6.40
2019-02-21T08:41:14.375Z,6.40
2019-02-21T08:43:43.744Z,6.40
2019-02-21T08:46:18.290Z,6.60
2019-02-21T08:48:49.293Z,6.80
2019-02-21T08:51:47.119Z,6.90
2019-02-21T08:54:17.607Z,7.00
2019-02-21T08:56:56.441Z,7.10
2019-02-21T08:59:26.896Z,7.30
2019-02-21T09:01:57.041Z,7.40
2019-02-21T09:04:28.160Z,7.40
2019-02-21T09:06:58.604Z,7.40
2019-02-21T09:09:33.383Z,7.50
2019-02-21T09:12:05.411Z,7.60
2019-02-21T09:14:35.335Z,7.90
2019-02-21T09:18:14.418Z,8.30
2019-02-21T09:21:20.252Z,8.60
2019-02-21T09:23:50.540Z,8.70
2019-02-21T09:26:21.692Z,8.80
2019-02-21T09:28:52.011Z,9.00
2019-02-21T09:31:22.418Z,9.20
2019-02-21T09:33:52.379Z,9.40
2019-02-21T09:36:22.377Z,9.50
2019-02-21T09:38:53.141Z,9.60
2019-02-21T09:41:23.898Z,9.70
2019-02-21T09:43:53.968Z,9.80
2019-02-21T09:46:24.001Z,9.90
2019-02-21T09:49:02.909Z,10.00
2019-02-21T09:51:33.157Z,10.10
2019-02-21T09:54:03.716Z,10.20
2019-02-21T09:56:34.089Z,10.10
2019-02-21T09:59:05.615Z,10.00
2019-02-21T10:01:35.970Z,9.90
2019-02-21T10:04:05.766Z,9.90
2019-02-21T10:06:35.941Z,9.90
2019-02-21T10:09:06.387Z,9.80
2019-02-21T10:11:37.179Z,9.80
2019-02-21T10:14:07.529Z,9.80
2019-02-21T10:16:38.049Z,9.80
2019-02-21T10:19:07.995Z,9.80
2019-02-21T10:21:38.126Z,9.90
2019-02-21T10:24:08.139Z,10.00
2019-02-21T10:26:38.531Z,10.10
2019-02-21T10:29:08.284Z,10.20
2019-02-21T10:31:38.207Z,10.20
2019-02-21T10:34:08.491Z,10.30
2019-02-21T10:36:38.945Z,10.40
2019-02-21T10:39:08.938Z,10.50
2019-02-21T10:41:39.313Z,10.70
2019-02-21T10:44:09.791Z,10.90
2019-02-21T10:46:40.474Z,11.00
2019-02-21T10:49:10.875Z,11.00
2019-02-21T10:51:40.766Z,11.20
2019-02-21T10:54:11.119Z,11.30
2019-02-21T10:56:41.129Z,11.60
2019-02-21T10:59:10.961Z,11.80
2019-02-21T11:01:40.702Z,11.90
2019-02-21T11:04:10.852Z,11.80
2019-02-21T11:06:41.028Z,11.80
2019-02-21T11:09:19.054Z,11.60
2019-02-21T11:11:50.049Z,11.60
2019-02-21T11:14:19.771Z,11.50
2019-02-21T11:16:50.153Z,11.50
2019-02-21T11:19:20.534Z,11.30
2019-02-21T11:21:50.633Z,11.30
2019-02-21T11:24:20.711Z,11.40
2019-02-21T11:26:50.995Z,11.50
2019-02-21T11:29:21.095Z,11.60
2019-02-21T11:31:50.901Z,11.80
2019-02-21T11:34:21.371Z,11.90
2019-02-21T11:36:51.352Z,12.00
2019-02-21T11:39:21.862Z,12.10
2019-02-21T11:41:52.346Z,12.10
2019-02-21T11:44:22.873Z,12.20
2019-02-21T11:46:53.130Z,12.20
2019-02-21T11:49:23.782Z,12.20
2019-02-21T11:51:53.852Z,12.30
2019-02-21T11:54:27.257Z,12.40
2019-02-21T11:56:56.302Z,12.40
2019-02-21T11:59:26.070Z,12.40
2019-02-21T12:01:56.105Z,12.30
2019-02-21T12:04:25.789Z,12.40
2019-02-21T12:06:56.225Z,12.50
2019-02-21T12:09:26.574Z,12.70
2019-02-21T12:11:56.974Z,12.80
2019-02-21T12:14:27.326Z,12.80
2019-02-21T12:16:58.161Z,12.90
2019-02-21T12:19:28.774Z,13.00
2019-02-21T12:21:59.520Z,13.10
2019-02-21T12:24:29.756Z,12.90
2019-02-21T12:26:59.854Z,12.90
2019-02-21T12:29:29.586Z,12.90
2019-02-21T12:31:59.661Z,12.90
2019-02-21T12:34:30.113Z,12.90
2019-02-21T12:37:00.464Z,13.00
2019-02-21T12:39:30.696Z,13.10
2019-02-21T12:42:00.799Z,13.30
2019-02-21T12:44:31.315Z,13.30
2019-02-21T12:47:01.427Z,13.30
2019-02-21T12:49:32.800Z,13.40
2019-02-21T12:52:02.913Z,13.60
2019-02-21T12:54:33.094Z,13.80
2019-02-21T12:57:05.337Z,14.10
2019-02-21T12:59:35.866Z,14.30
2019-02-21T13:02:05.243Z,14.50
2019-02-21T13:04:35.707Z,14.70
2019-02-21T13:07:06.495Z,14.80
2019-02-21T13:09:36.889Z,14.80
2019-02-21T13:12:07.338Z,14.90
2019-02-21T13:14:38.389Z,14.90
2019-02-21T13:17:09.374Z,14.80
2019-02-21T13:19:40.147Z,14.80
2019-02-21T13:22:10.050Z,14.70
2019-02-21T13:24:40.455Z,14.50
2019-02-21T13:27:10.817Z,14.40
2019-02-21T13:29:41.767Z,14.50
2019-02-21T13:32:12.341Z,14.50
2019-02-21T13:34:42.283Z,14.50
2019-02-21T13:37:13.266Z,14.40
2019-02-21T13:40:02.383Z,14.50
2019-02-21T13:42:33.328Z,14.60
2019-02-21T13:45:04.395Z,14.60
2019-02-21T13:47:34.796Z,14.60
2019-02-21T13:50:10.237Z,14.70
2019-02-21T13:52:39.985Z,14.60
2019-02-21T13:55:13.753Z,14.40
2019-02-21T13:57:47.109Z,14.20
2019-02-21T14:00:18.661Z,14.20
2019-02-21T14:02:48.503Z,14.40
2019-02-21T14:05:20.178Z,14.60
2019-02-21T14:07:50.937Z,14.60
2019-02-21T14:10:21.383Z,14.40
2019-02-21T14:12:51.971Z,14.40
2019-02-21T14:15:25.483Z,14.50
2019-02-21T14:17:55.680Z,14.50
2019-02-21T14:20:27.354Z,14.50
2019-02-21T14:22:57.721Z,14.40
2019-02-21T14:25:40.022Z,14.40
2019-02-21T14:28:01.429Z,14.30
2019-02-21T14:30:31.989Z,14.30
2019-02-21T14:33:03.252Z,14.20
2019-02-21T14:35:35.132Z,14.10
2019-02-21T14:38:05.349Z,14.00
2019-02-21T14:40:36.451Z,13.90
2019-02-21T14:43:06.925Z,13.90
2019-02-21T14:45:37.085Z,13.80
2019-02-21T14:48:07.612Z,13.70
2019-02-21T14:50:37.733Z,13.60
2019-02-21T14:53:07.874Z,13.30
2019-02-21T14:55:39.920Z,13.20
2019-02-21T14:58:09.155Z,13.30
2019-02-21T15:00:40.619Z,13.40
2019-02-21T15:03:21.272Z,13.50
2019-02-21T15:05:43.729Z,13.40
2019-02-21T15:08:14.142Z,13.30
2019-02-21T15:11:02.338Z,13.20
2019-02-21T15:13:32.638Z,13.10
2019-02-21T15:16:10.885Z,13.00
2019-02-21T15:18:41.137Z,12.90
2019-02-21T15:21:23.734Z,12.90
2019-02-21T15:23:57.444Z,12.90
2019-02-21T15:26:47.971Z,12.80
2019-02-21T15:29:19.118Z,12.80
2019-02-21T15:31:50.501Z,12.70
2019-02-21T15:34:21.118Z,12.50
2019-02-21T15:37:02.625Z,12.40
2019-02-21T15:39:42.753Z,12.30
2019-02-21T15:42:44.231Z,12.20
2019-02-21T15:45:34.218Z,12.10
2019-02-21T15:48:07.513Z,12.10
2019-02-21T15:50:38.315Z,12.10
2019-02-21T15:53:08.584Z,11.90
2019-02-21T15:55:38.667Z,11.90
2019-02-21T15:58:34.662Z,11.80
2019-02-21T16:01:05.124Z,11.70
2019-02-21T16:03:35.888Z,11.60
2019-02-21T16:10:45.598Z,11.50
2019-02-21T16:13:19.017Z,11.40
2019-02-21T16:15:55.739Z,11.20
2019-02-21T16:18:36.365Z,11.20
2019-02-21T16:21:06.922Z,11.10
2019-02-21T16:24:13.700Z,11.10
2019-02-21T16:26:45.167Z,11.10
2019-02-21T16:29:15.658Z,11.10
2019-02-21T16:31:47.251Z,11.00
2019-02-21T16:34:17.872Z,10.80
2019-02-21T16:36:48.338Z,10.60
2019-02-21T16:39:19.174Z,10.30
2019-02-21T16:41:53.002Z,10.10
2019-02-21T16:44:34.851Z,9.80
2019-02-21T16:47:12.518Z,9.60
2019-02-21T16:49:54.751Z,9.40
2019-02-21T16:59:57.219Z,8.60
2019-02-21T17:02:27.031Z,8.40
2019-02-21T17:04:57.128Z,8.20
2019-02-21T17:07:27.197Z,8.00
2019-02-21T17:09:56.979Z,7.80
2019-02-21T17:12:27.246Z,7.70
2019-02-21T17:14:57.720Z,7.60
2019-02-21T17:17:27.950Z,7.70
2019-02-21T17:19:58.484Z,7.80
2019-02-21T17:22:28.724Z,7.60
2019-02-21T17:24:59.516Z,7.60
2019-02-21T17:27:30.219Z,7.50
2019-02-21T17:30:00.985Z,7.40
2019-02-21T17:32:31.644Z,7.30
2019-02-21T17:35:04.358Z,7.10
2019-02-21T17:37:35.004Z,7.00
2019-02-21T17:40:05.363Z,6.90
2019-02-21T17:42:35.477Z,6.90
2019-02-21T17:45:06.010Z,6.90
2019-02-21T17:47:35.952Z,6.80
2019-02-21T17:50:05.614Z,6.80
2019-02-21T17:52:35.825Z,6.80
2019-02-21T17:55:08.621Z,6.70
2019-02-21T17:57:39.340Z,6.70
2019-02-21T18:00:12.452Z,6.70
2019-02-21T18:02:42.921Z,6.70
2019-02-21T18:05:13.530Z,6.60
2019-02-21T18:07:47.029Z,6.80
2019-02-21T18:10:17.971Z,6.90
2019-02-21T18:12:47.944Z,7.00
2019-02-21T18:15:18.869Z,7.00
2019-02-21T18:17:49.346Z,7.10
2019-02-21T18:20:19.252Z,7.00
2019-02-21T18:22:49.783Z,7.00
2019-02-21T18:25:26.991Z,7.10
2019-02-21T18:28:00.509Z,7.10
2019-02-21T18:30:32.177Z,7.00
2019-02-21T18:33:03.886Z,7.00
2019-02-21T18:35:35.252Z,7.10
2019-02-21T18:38:06.245Z,7.20
2019-02-21T18:40:36.600Z,7.40
2019-02-21T18:43:07.715Z,7.50
2019-02-21T18:45:38.399Z,7.60
2019-02-21T18:48:09.880Z,7.70
2019-02-21T18:50:41.846Z,7.90
2019-02-21T18:53:12.239Z,7.90
2019-02-21T18:55:42.445Z,8.00
2019-02-21T18:58:12.422Z,8.10
2019-02-21T19:00:42.965Z,8.10
2019-02-21T19:03:12.786Z,8.20
2019-02-21T19:05:44.250Z,8.30
2019-02-21T19:08:16.060Z,8.30
2019-02-21T19:10:47.221Z,8.20
2019-02-21T19:13:18.694Z,8.10
2019-02-21T19:15:49.552Z,7.90
2019-02-21T19:18:24.359Z,7.90
2019-02-21T19:20:54.930Z,7.90
2019-02-21T19:23:28.443Z,7.90
2019-02-21T19:25:58.599Z,7.90
2019-02-21T19:28:30.467Z,7.90
2019-02-21T19:31:07.530Z,8.00
2019-02-21T19:33:38.580Z,8.10
2019-02-21T19:36:11.087Z,8.20
2019-02-21T19:38:42.149Z,8.50
2019-02-21T19:41:15.739Z,8.70
2019-02-21T19:43:45.845Z,8.90
2019-02-21T19:46:16.286Z,9.00
2019-02-21T19:48:47.395Z,9.00
2019-02-21T19:51:17.694Z,9.10
2019-02-21T19:53:52.591Z,9.10
2019-02-21T19:56:25.693Z,9.10
2019-02-21T19:58:58.687Z,9.20
2019-02-21T20:01:30.075Z,9.20
2019-02-21T20:04:01.253Z,9.20
2019-02-21T20:06:32.597Z,9.20
2019-02-21T20:09:04.584Z,9.10
2019-02-21T20:11:37.802Z,9.10
2019-02-21T20:14:13.977Z,9.00
2019-02-21T20:16:47.389Z,9.00
2019-02-21T20:19:20.586Z,9.00
2019-02-21T20:21:54.771Z,9.00
2019-02-21T20:24:29.419Z,9.00
2019-02-21T20:27:02.770Z,9.00
2019-02-21T20:29:36.061Z,9.10
2019-02-21T20:35:21.210Z,9.10
2019-02-21T20:37:54.679Z,9.10
2019-02-21T20:40:35.492Z,9.20
2019-02-21T20:43:07.657Z,9.10
2019-02-21T20:45:51.888Z,9.10
2019-02-21T20:48:13.082Z,9.00
2019-02-21T20:50:44.392Z,9.10
2019-02-21T20:53:15.634Z,9.10
2019-02-21T20:55:48.209Z,9.10
2019-02-21T20:58:19.451Z,9.10
2019-02-21T21:00:54.950Z,9.10
2019-02-21T21:03:28.021Z,9.10
2019-02-21T21:06:01.195Z,9.20
2019-02-21T21:08:42.514Z,9.20
2019-02-21T21:11:06.447Z,9.20
2019-02-21T21:13:37.044Z,9.20
2019-02-21T21:16:07.604Z,9.20
2019-02-21T21:18:37.633Z,9.20
2019-02-21T21:21:07.363Z,9.30
2019-02-21T21:23:36.792Z,9.30
2019-02-21T21:26:07.034Z,9.20
2019-02-21T21:28:37.913Z,9.30
2019-02-21T21:31:08.615Z,9.30
2019-02-21T21:33:39.198Z,9.30
2019-02-21T21:36:10.049Z,9.30
2019-02-21T21:38:40.706Z,9.20
2019-02-21T21:41:11.612Z,9.20
2019-02-21T21:43:42.036Z,9.30
2019-02-21T21:46:12.948Z,9.30
2019-02-21T21:48:44.106Z,9.30
2019-02-21T21:51:14.747Z,9.40
2019-02-21T21:53:44.530Z,9.30
2019-02-21T21:56:15.097Z,9.40
2019-02-21T21:58:45.167Z,9.30
2019-02-21T22:01:15.779Z,9.30
2019-02-21T22:03:47.729Z,9.30
2019-02-21T22:06:17.811Z,9.20
2019-02-21T22:08:47.947Z,9.30
2019-02-21T22:11:17.554Z,9.30
2019-02-21T22:13:47.588Z,9.30
2019-02-21T22:16:17.569Z,9.30
2019-02-21T22:18:48.408Z,9.30
2019-02-21T22:21:18.797Z,9.30
2019-02-21T22:23:48.315Z,9.30
2019-02-21T22:26:18.403Z,9.30
2019-02-21T22:28:49.131Z,9.20
2019-02-21T22:31:19.202Z,9.30
2019-02-21T22:33:49.288Z,9.20
2019-02-21T22:36:19.672Z,9.20
2019-02-21T22:38:49.616Z,9.20
2019-02-21T22:41:20.085Z,9.10
2019-02-21T22:43:50.550Z,9.00
2019-02-21T22:46:21.133Z,9.00
2019-02-21T22:48:51.270Z,8.90
2019-02-21T22:51:21.844Z,8.80
2019-02-21T22:53:52.180Z,8.80
2019-02-21T22:56:22.585Z,8.90
2019-02-21T22:58:52.001Z,8.90
2019-02-21T23:01:40.019Z,8.90
2019-02-21T23:04:25.676Z,8.90
2019-02-21T23:07:15.455Z,8.90
2019-02-21T23:09:46.227Z,8.90
2019-02-21T23:12:16.555Z,8.80
2019-02-21T23:14:46.655Z,8.70
2019-02-21T23:17:17.067Z,8.50
2019-02-21T23:19:47.572Z,8.40
2019-02-21T23:22:18.005Z,8.30
2019-02-21T23:24:47.943Z,8.30
2019-02-21T23:27:18.300Z,8.40
2019-02-21T23:29:48.680Z,8.40
2019-02-21T23:32:19.098Z,8.40
2019-02-21T23:34:50.254Z,8.40
2019-02-21T23:37:20.495Z,8.40
2019-02-21T23:39:50.726Z,8.40
2019-02-21T23:42:21.417Z,8.40
2019-02-21T23:44:50.768Z,8.30
2019-02-21T23:47:20.993Z,8.40
2019-02-21T23:49:51.455Z,8.50
2019-02-21T23:52:21.826Z,8.50
2019-02-21T23:54:52.154Z,8.50
2019-02-21T23:57:22.229Z,8.50
2019-02-21T23:59:52.400Z,8.50
